sensor_id;sensor_type;location;lat;lon;timestamp;temperature;humidity
7014;DHT22;3547;50.774;12.918;2023-03-24T00:02:00;11.70;99.90
7014;DHT22;3547;50.774;12.918;2023-03-24T00:17:28;11.90;99.90
7014;DHT22;3547;50.774;12.918;2023-03-24T00:19:55;11.90;99.90
7014;DHT22;3547;50.774;12.918;2023-03-24T00:22:22;11.90;99.90
7014;DHT22;3547;50.774;12.918;2023-03-24T00:24:49;11.90;99.90
7014;DHT22;3547;50.774;12.918;2023-03-24T00:27:15;11.90;99.90
7014;DHT22;3547;50.774;12.918;2023-03-24T00:29:43;12.00;99.90
7014;DHT22;3547;50.774;12.918;2023-03-24T00:32:09;12.00;99.90
7014;DHT22;3547;50.774;12.918;2023-03-24T00:34:36;12.00;99.90
7014;DHT22;3547;50.774;12.918;2023-03-24T00:37:08;12.00;99.90
7014;DHT22;3547;50.774;12.918;2023-03-24T00:39:34;12.10;99.90
7014;DHT22;3547;50.774;12.918;2023-03-24T00:42:00;12.10;99.90
7014;DHT22;3547;50.774;12.918;2023-03-24T00:44:28;12.10;99.90
7014;DHT22;3547;50.774;12.918;2023-03-24T00:46:54;12.20;99.90
7014;DHT22;3547;50.774;12.918;2023-03-24T00:49:30;12.30;99.90
7014;DHT22;3547;50.774;12.918;2023-03-24T00:52:16;12.30;99.90
7014;DHT22;3547;50.774;12.918;2023-03-24T00:54:47;12.40;99.90
7014;DHT22;3547;50.774;12.918;2023-03-24T00:59:57;12.40;99.90
7014;DHT22;3547;50.774;12.918;2023-03-24T01:02:25;12.40;99.90
7014;DHT22;3547;50.774;12.918;2023-03-24T01:04:53;12.50;99.90
7014;DHT22;3547;50.774;12.918;2023-03-24T01:07:21;12.50;99.90
7014;DHT22;3547;50.774;12.918;2023-03-24T01:09:48;12.40;99.90
7014;DHT22;3547;50.774;12.918;2023-03-24T01:15:14;12.30;99.90
7014;DHT22;3547;50.774;12.918;2023-03-24T01:17:41;12.30;99.90
7014;DHT22;3547;50.774;12.918;2023-03-24T01:20:08;12.30;99.90
7014;DHT22;3547;50.774;12.918;2023-03-24T01:22:38;12.30;99.90
7014;DHT22;3547;50.774;12.918;2023-03-24T01:25:06;12.30;99.90
7014;DHT22;3547;50.774;12.918;2023-03-24T01:27:35;12.30;99.90
7014;DHT22;3547;50.774;12.918;2023-03-24T01:30:05;12.30;99.90
7014;DHT22;3547;50.774;12.918;2023-03-24T01:32:32;12.30;99.90
7014;DHT22;3547;50.774;12.918;2023-03-24T01:34:59;12.40;99.90
7014;DHT22;3547;50.774;12.918;2023-03-24T01:37:25;12.30;99.90
7014;DHT22;3547;50.774;12.918;2023-03-24T01:39:51;12.30;99.90
7014;DHT22;3547;50.774;12.918;2023-03-24T01:42:20;12.40;99.90
7014;DHT22;3547;50.774;12.918;2023-03-24T01:44:48;12.40;99.90
7014;DHT22;3547;50.774;12.918;2023-03-24T01:47:15;12.40;99.90
7014;DHT22;3547;50.774;12.918;2023-03-24T01:49:53;12.40;99.90
7014;DHT22;3547;50.774;12.918;2023-03-24T01:52:28;12.40;99.90
7014;DHT22;3547;50.774;12.918;2023-03-24T01:55:05;12.40;99.90
7014;DHT22;3547;50.774;12.918;2023-03-24T01:57:39;12.50;99.90
7014;DHT22;3547;50.774;12.918;2023-03-24T02:00:10;12.50;99.90
7014;DHT22;3547;50.774;12.918;2023-03-24T02:02:39;12.50;99.90
7014;DHT22;3547;50.774;12.918;2023-03-24T02:05:09;12.40;99.90
7014;DHT22;3547;50.774;12.918;2023-03-24T02:07:55;12.40;99.90
7014;DHT22;3547;50.774;12.918;2023-03-24T02:10:27;12.50;99.90
7014;DHT22;3547;50.774;12.918;2023-03-24T02:13:00;12.50;99.90
7014;DHT22;3547;50.774;12.918;2023-03-24T02:15:33;12.50;99.90
7014;DHT22;3547;50.774;12.918;2023-03-24T02:34:44;12.60;99.90
7014;DHT22;3547;50.774;12.918;2023-03-24T02:43:20;12.60;99.90
7014;DHT22;3547;50.774;12.918;2023-03-24T02:51:08;12.50;99.90
7014;DHT22;3547;50.774;12.918;2023-03-24T03:02:08;12.40;99.90
7014;DHT22;3547;50.774;12.918;2023-03-24T03:04:58;12.40;99.90
7014;DHT22;3547;50.774;12.918;2023-03-24T03:10:29;12.30;99.90
7014;DHT22;3547;50.774;12.918;2023-03-24T03:13:38;12.30;99.90
7014;DHT22;3547;50.774;12.918;2023-03-24T03:19:08;12.20;99.90
7014;DHT22;3547;50.774;12.918;2023-03-24T03:21:40;12.20;99.90
7014;DHT22;3547;50.774;12.918;2023-03-24T03:24:16;12.20;99.90
7014;DHT22;3547;50.774;12.918;2023-03-24T03:37:43;12.10;1.00
7014;DHT22;3547;50.774;12.918;2023-03-24T03:40:34;12.10;99.90
7014;DHT22;3547;50.774;12.918;2023-03-24T03:43:02;12.10;99.90
7014;DHT22;3547;50.774;12.918;2023-03-24T03:45:29;12.10;99.90
7014;DHT22;3547;50.774;12.918;2023-03-24T03:47:56;12.10;99.90
7014;DHT22;3547;50.774;12.918;2023-03-24T03:50:22;12.10;99.90
7014;DHT22;3547;50.774;12.918;2023-03-24T03:52:49;12.10;99.90
7014;DHT22;3547;50.774;12.918;2023-03-24T03:55:17;12.10;99.90
7014;DHT22;3547;50.774;12.918;2023-03-24T04:00:20;12.00;99.90
7014;DHT22;3547;50.774;12.918;2023-03-24T04:06:22;12.10;99.90
7014;DHT22;3547;50.774;12.918;2023-03-24T04:28:57;12.10;99.90
7014;DHT22;3547;50.774;12.918;2023-03-24T04:31:14;12.20;99.90
7014;DHT22;3547;50.774;12.918;2023-03-24T04:33:48;12.20;99.90
7014;DHT22;3547;50.774;12.918;2023-03-24T04:38:49;12.20;99.90
7014;DHT22;3547;50.774;12.918;2023-03-24T04:41:20;12.20;99.90
7014;DHT22;3547;50.774;12.918;2023-03-24T04:43:53;12.20;99.90
7014;DHT22;3547;50.774;12.918;2023-03-24T04:46:23;12.20;99.90
7014;DHT22;3547;50.774;12.918;2023-03-24T04:51:40;12.20;99.90
7014;DHT22;3547;50.774;12.918;2023-03-24T04:54:07;12.20;99.90
7014;DHT22;3547;50.774;12.918;2023-03-24T04:56:43;12.10;99.90
7014;DHT22;3547;50.774;12.918;2023-03-24T04:59:13;12.20;99.90
7014;DHT22;3547;50.774;12.918;2023-03-24T05:01:41;12.20;99.90
7014;DHT22;3547;50.774;12.918;2023-03-24T05:04:20;12.20;99.90
7014;DHT22;3547;50.774;12.918;2023-03-24T05:06:46;12.20;99.90
7014;DHT22;3547;50.774;12.918;2023-03-24T05:09:17;12.20;99.90
7014;DHT22;3547;50.774;12.918;2023-03-24T05:11:44;12.20;99.90
7014;DHT22;3547;50.774;12.918;2023-03-24T05:14:11;12.20;99.90
7014;DHT22;3547;50.774;12.918;2023-03-24T05:16:37;12.20;99.90
7014;DHT22;3547;50.774;12.918;2023-03-24T05:19:04;12.20;99.90
7014;DHT22;3547;50.774;12.918;2023-03-24T05:21:34;12.20;99.90
7014;DHT22;3547;50.774;12.918;2023-03-24T05:24:00;12.20;99.90
7014;DHT22;3547;50.774;12.918;2023-03-24T05:26:27;12.30;99.90
7014;DHT22;3547;50.774;12.918;2023-03-24T05:29:02;12.30;99.90
7014;DHT22;3547;50.774;12.918;2023-03-24T05:31:40;12.30;99.90
7014;DHT22;3547;50.774;12.918;2023-03-24T05:34:43;12.30;99.90
7014;DHT22;3547;50.774;12.918;2023-03-24T05:45:04;12.40;99.90
7014;DHT22;3547;50.774;12.918;2023-03-24T05:47:31;12.50;99.90
7014;DHT22;3547;50.774;12.918;2023-03-24T05:49:57;12.40;99.90
7014;DHT22;3547;50.774;12.918;2023-03-24T05:52:23;12.40;99.90
7014;DHT22;3547;50.774;12.918;2023-03-24T05:54:49;12.50;99.90
7014;DHT22;3547;50.774;12.918;2023-03-24T06:07:40;12.60;99.90
7014;DHT22;3547;50.774;12.918;2023-03-24T06:10:10;12.70;99.90
7014;DHT22;3547;50.774;12.918;2023-03-24T06:25:59;13.00;99.90
7014;DHT22;3547;50.774;12.918;2023-03-24T06:31:19;13.10;99.90
7014;DHT22;3547;50.774;12.918;2023-03-24T06:33:47;13.20;99.90
7014;DHT22;3547;50.774;12.918;2023-03-24T06:36:14;13.20;99.90
7014;DHT22;3547;50.774;12.918;2023-03-24T06:43:54;13.30;99.90
7014;DHT22;3547;50.774;12.918;2023-03-24T06:46:21;13.40;99.90
7014;DHT22;3547;50.774;12.918;2023-03-24T06:48:47;13.50;99.90
7014;DHT22;3547;50.774;12.918;2023-03-24T06:51:15;13.50;99.90
7014;DHT22;3547;50.774;12.918;2023-03-24T06:53:42;13.60;99.90
7014;DHT22;3547;50.774;12.918;2023-03-24T06:56:10;13.70;99.90
7014;DHT22;3547;50.774;12.918;2023-03-24T06:58:43;13.70;99.90
7014;DHT22;3547;50.774;12.918;2023-03-24T07:01:12;13.90;99.90
7014;DHT22;3547;50.774;12.918;2023-03-24T07:04:06;14.00;99.90
7014;DHT22;3547;50.774;12.918;2023-03-24T07:06:36;14.20;99.90
7014;DHT22;3547;50.774;12.918;2023-03-24T07:12:26;14.30;99.90
7014;DHT22;3547;50.774;12.918;2023-03-24T07:14:52;14.30;99.90
7014;DHT22;3547;50.774;12.918;2023-03-24T07:17:20;14.40;99.90
7014;DHT22;3547;50.774;12.918;2023-03-24T07:19:47;14.40;99.90
7014;DHT22;3547;50.774;12.918;2023-03-24T07:22:16;14.30;99.90
7014;DHT22;3547;50.774;12.918;2023-03-24T07:24:43;14.30;99.90
7014;DHT22;3547;50.774;12.918;2023-03-24T07:27:40;14.40;99.90
7014;DHT22;3547;50.774;12.918;2023-03-24T07:30:07;14.40;99.90
7014;DHT22;3547;50.774;12.918;2023-03-24T07:32:35;14.50;99.90
7014;DHT22;3547;50.774;12.918;2023-03-24T07:35:21;14.50;99.90
7014;DHT22;3547;50.774;12.918;2023-03-24T07:37:47;14.50;99.90
7014;DHT22;3547;50.774;12.918;2023-03-24T07:40:15;14.50;99.90
7014;DHT22;3547;50.774;12.918;2023-03-24T07:42:42;14.50;99.90
7014;DHT22;3547;50.774;12.918;2023-03-24T07:45:10;14.50;99.90
7014;DHT22;3547;50.774;12.918;2023-03-24T07:47:37;14.60;99.90
7014;DHT22;3547;50.774;12.918;2023-03-24T07:50:05;14.60;99.90
7014;DHT22;3547;50.774;12.918;2023-03-24T07:55:29;14.60;99.90
7014;DHT22;3547;50.774;12.918;2023-03-24T07:57:57;14.60;99.90
7014;DHT22;3547;50.774;12.918;2023-03-24T08:00:23;14.70;99.90
7014;DHT22;3547;50.774;12.918;2023-03-24T08:02:51;14.60;99.90
7014;DHT22;3547;50.774;12.918;2023-03-24T08:05:21;14.60;99.90
7014;DHT22;3547;50.774;12.918;2023-03-24T08:08:07;14.60;99.90
7014;DHT22;3547;50.774;12.918;2023-03-24T08:13:10;14.60;99.90
7014;DHT22;3547;50.774;12.918;2023-03-24T08:15:37;14.40;99.90
7014;DHT22;3547;50.774;12.918;2023-03-24T08:18:04;14.40;99.90
7014;DHT22;3547;50.774;12.918;2023-03-24T08:20:32;14.50;99.90
7014;DHT22;3547;50.774;12.918;2023-03-24T08:22:58;14.60;99.90
7014;DHT22;3547;50.774;12.918;2023-03-24T08:25:37;14.70;99.90
7014;DHT22;3547;50.774;12.918;2023-03-24T08:28:04;14.90;99.90
7014;DHT22;3547;50.774;12.918;2023-03-24T08:30:32;15.00;99.90
7014;DHT22;3547;50.774;12.918;2023-03-24T08:32:59;15.10;99.90
7014;DHT22;3547;50.774;12.918;2023-03-24T08:35:53;15.00;99.90
7014;DHT22;3547;50.774;12.918;2023-03-24T08:41:02;14.90;99.90
7014;DHT22;3547;50.774;12.918;2023-03-24T08:43:33;15.00;99.90
7014;DHT22;3547;50.774;12.918;2023-03-24T08:46:01;14.90;99.90
7014;DHT22;3547;50.774;12.918;2023-03-24T08:48:29;14.80;99.90
7014;DHT22;3547;50.774;12.918;2023-03-24T08:50:55;15.00;99.90
7014;DHT22;3547;50.774;12.918;2023-03-24T08:53:22;15.20;99.90
7014;DHT22;3547;50.774;12.918;2023-03-24T08:59:10;15.40;99.90
7014;DHT22;3547;50.774;12.918;2023-03-24T09:01:37;15.60;99.90
7014;DHT22;3547;50.774;12.918;2023-03-24T09:04:03;15.60;99.90
7014;DHT22;3547;50.774;12.918;2023-03-24T09:06:31;15.50;99.90
7014;DHT22;3547;50.774;12.918;2023-03-24T09:08:57;15.50;99.90
7014;DHT22;3547;50.774;12.918;2023-03-24T09:11:25;15.50;99.90
7014;DHT22;3547;50.774;12.918;2023-03-24T09:13:52;15.50;99.90
7014;DHT22;3547;50.774;12.918;2023-03-24T09:16:20;15.30;99.90
7014;DHT22;3547;50.774;12.918;2023-03-24T09:18:48;15.20;99.90
7014;DHT22;3547;50.774;12.918;2023-03-24T09:21:15;15.20;99.90
7014;DHT22;3547;50.774;12.918;2023-03-24T09:23:41;15.30;99.90
7014;DHT22;3547;50.774;12.918;2023-03-24T09:26:07;15.30;99.90
7014;DHT22;3547;50.774;12.918;2023-03-24T09:28:34;15.20;99.90
7014;DHT22;3547;50.774;12.918;2023-03-24T09:31:03;15.30;99.90
7014;DHT22;3547;50.774;12.918;2023-03-24T09:33:42;15.40;99.90
7014;DHT22;3547;50.774;12.918;2023-03-24T09:49:32;15.60;99.90
7014;DHT22;3547;50.774;12.918;2023-03-24T09:52:08;15.90;99.90
7014;DHT22;3547;50.774;12.918;2023-03-24T09:55:12;16.00;99.90
7014;DHT22;3547;50.774;12.918;2023-03-24T09:58:18;16.00;99.90
7014;DHT22;3547;50.774;12.918;2023-03-24T10:00:45;16.50;99.90
7014;DHT22;3547;50.774;12.918;2023-03-24T10:03:18;16.50;99.90
7014;DHT22;3547;50.774;12.918;2023-03-24T10:06:08;16.50;99.90
7014;DHT22;3547;50.774;12.918;2023-03-24T10:08:43;16.40;99.90
7014;DHT22;3547;50.774;12.918;2023-03-24T10:14:16;16.90;99.90
7014;DHT22;3547;50.774;12.918;2023-03-24T10:17:02;17.10;99.90
7014;DHT22;3547;50.774;12.918;2023-03-24T10:20:37;17.10;99.90
7014;DHT22;3547;50.774;12.918;2023-03-24T10:25:34;17.30;99.90
7014;DHT22;3547;50.774;12.918;2023-03-24T10:30:54;16.50;99.90
7014;DHT22;3547;50.774;12.918;2023-03-24T10:33:20;16.30;99.90
7014;DHT22;3547;50.774;12.918;2023-03-24T10:38:21;16.40;99.90
7014;DHT22;3547;50.774;12.918;2023-03-24T10:40:48;16.10;99.90
7014;DHT22;3547;50.774;12.918;2023-03-24T10:45:52;15.90;99.90
7014;DHT22;3547;50.774;12.918;2023-03-24T10:48:44;15.70;99.90
7014;DHT22;3547;50.774;12.918;2023-03-24T10:51:30;15.70;99.90
7014;DHT22;3547;50.774;12.918;2023-03-24T10:57:28;15.10;99.90
7014;DHT22;3547;50.774;12.918;2023-03-24T11:03:26;14.80;99.90
7014;DHT22;3547;50.774;12.918;2023-03-24T11:06:04;15.10;99.90
7014;DHT22;3547;50.774;12.918;2023-03-24T11:08:35;15.10;99.90
7014;DHT22;3547;50.774;12.918;2023-03-24T11:11:13;15.00;99.90
7014;DHT22;3547;50.774;12.918;2023-03-24T11:13:40;14.80;99.90
7014;DHT22;3547;50.774;12.918;2023-03-24T11:16:13;14.80;99.90
7014;DHT22;3547;50.774;12.918;2023-03-24T11:19:01;14.90;99.90
7014;DHT22;3547;50.774;12.918;2023-03-24T11:21:38;15.20;99.90
7014;DHT22;3547;50.774;12.918;2023-03-24T11:24:12;15.70;99.90
7014;DHT22;3547;50.774;12.918;2023-03-24T11:33:34;16.30;99.90
7014;DHT22;3547;50.774;12.918;2023-03-24T11:39:24;16.40;99.90
7014;DHT22;3547;50.774;12.918;2023-03-24T11:42:04;15.90;99.90
7014;DHT22;3547;50.774;12.918;2023-03-24T11:44:42;15.90;99.90
7014;DHT22;3547;50.774;12.918;2023-03-24T11:47:28;16.00;99.90
7014;DHT22;3547;50.774;12.918;2023-03-24T12:11:31;15.00;99.90
7014;DHT22;3547;50.774;12.918;2023-03-24T12:14:00;15.00;99.90
7014;DHT22;3547;50.774;12.918;2023-03-24T12:16:53;14.80;99.90
7014;DHT22;3547;50.774;12.918;2023-03-24T12:53:21;15.30;99.90
7014;DHT22;3547;50.774;12.918;2023-03-24T12:58:55;15.30;99.90
7014;DHT22;3547;50.774;12.918;2023-03-24T13:01:43;15.30;99.90
7014;DHT22;3547;50.774;12.918;2023-03-24T13:04:17;15.30;99.90
7014;DHT22;3547;50.774;12.918;2023-03-24T13:07:00;15.40;99.90
7014;DHT22;3547;50.774;12.918;2023-03-24T13:12:40;15.90;99.90
7014;DHT22;3547;50.774;12.918;2023-03-24T13:23:13;16.00;99.90
7014;DHT22;3547;50.774;12.918;2023-03-24T13:32:21;15.00;99.90
7014;DHT22;3547;50.774;12.918;2023-03-24T13:37:41;11.90;99.90
7014;DHT22;3547;50.774;12.918;2023-03-24T13:40:17;11.20;99.90
7014;DHT22;3547;50.774;12.918;2023-03-24T13:43:15;10.20;1.00
7014;DHT22;3547;50.774;12.918;2023-03-24T13:45:46;10.40;1.00
7014;DHT22;3547;50.774;12.918;2023-03-24T13:48:30;10.50;1.00
7014;DHT22;3547;50.774;12.918;2023-03-24T13:51:06;10.50;1.00
7014;DHT22;3547;50.774;12.918;2023-03-24T13:53:39;10.50;1.00
7014;DHT22;3547;50.774;12.918;2023-03-24T13:56:09;10.70;1.00
7014;DHT22;3547;50.774;12.918;2023-03-24T14:01:36;10.60;1.00
7014;DHT22;3547;50.774;12.918;2023-03-24T14:06:48;10.60;1.00
7014;DHT22;3547;50.774;12.918;2023-03-24T14:09:56;10.80;1.00
7014;DHT22;3547;50.774;12.918;2023-03-24T14:12:22;10.70;1.00
7014;DHT22;3547;50.774;12.918;2023-03-24T14:15:11;10.80;1.00
7014;DHT22;3547;50.774;12.918;2023-03-24T14:17:47;10.90;1.00
7014;DHT22;3547;50.774;12.918;2023-03-24T14:20:31;10.80;1.00
7014;DHT22;3547;50.774;12.918;2023-03-24T14:22:58;10.90;1.00
7014;DHT22;3547;50.774;12.918;2023-03-24T14:25:28;11.10;1.00
7014;DHT22;3547;50.774;12.918;2023-03-24T14:28:47;11.00;1.00
7014;DHT22;3547;50.774;12.918;2023-03-24T14:36:32;10.80;1.00
7014;DHT22;3547;50.774;12.918;2023-03-24T14:42:00;10.60;1.00
7014;DHT22;3547;50.774;12.918;2023-03-24T14:47:22;10.70;1.00
7014;DHT22;3547;50.774;12.918;2023-03-24T14:49:54;10.70;1.00
7014;DHT22;3547;50.774;12.918;2023-03-24T14:55:25;10.70;1.00
7014;DHT22;3547;50.774;12.918;2023-03-24T14:57:58;10.50;1.00
7014;DHT22;3547;50.774;12.918;2023-03-24T15:00:38;10.70;1.00
7014;DHT22;3547;50.774;12.918;2023-03-24T15:03:17;10.90;1.00
7014;DHT22;3547;50.774;12.918;2023-03-24T15:05:45;11.00;1.00
7014;DHT22;3547;50.774;12.918;2023-03-24T15:08:16;11.10;1.00
7014;DHT22;3547;50.774;12.918;2023-03-24T15:11:07;11.00;1.00
7014;DHT22;3547;50.774;12.918;2023-03-24T15:18:54;11.10;1.00
7014;DHT22;3547;50.774;12.918;2023-03-24T15:21:47;11.10;1.00
7014;DHT22;3547;50.774;12.918;2023-03-24T15:27:36;11.20;1.00
7014;DHT22;3547;50.774;12.918;2023-03-24T15:30:14;11.20;1.00
7014;DHT22;3547;50.774;12.918;2023-03-24T15:32:40;11.40;1.00
7014;DHT22;3547;50.774;12.918;2023-03-24T15:35:16;11.40;1.00
7014;DHT22;3547;50.774;12.918;2023-03-24T15:37:43;11.30;1.00
7014;DHT22;3547;50.774;12.918;2023-03-24T15:42:52;11.20;1.00
7014;DHT22;3547;50.774;12.918;2023-03-24T15:48:07;11.20;1.00
7014;DHT22;3547;50.774;12.918;2023-03-24T15:50:40;11.20;1.00
7014;DHT22;3547;50.774;12.918;2023-03-24T16:11:26;11.00;1.00
7014;DHT22;3547;50.774;12.918;2023-03-24T16:13:52;10.90;1.00
7014;DHT22;3547;50.774;12.918;2023-03-24T16:16:27;10.90;1.00
7014;DHT22;3547;50.774;12.918;2023-03-24T16:18:56;11.00;1.00
7014;DHT22;3547;50.774;12.918;2023-03-24T16:21:29;11.20;1.00
7014;DHT22;3547;50.774;12.918;2023-03-24T16:23:56;11.30;1.00
7014;DHT22;3547;50.774;12.918;2023-03-24T16:31:41;11.50;1.00
7014;DHT22;3547;50.774;12.918;2023-03-24T16:34:07;11.30;1.00
7014;DHT22;3547;50.774;12.918;2023-03-24T16:36:34;11.10;1.00
7014;DHT22;3547;50.774;12.918;2023-03-24T16:39:01;11.10;1.00
7014;DHT22;3547;50.774;12.918;2023-03-24T16:44:04;11.10;1.00
7014;DHT22;3547;50.774;12.918;2023-03-24T16:49:07;10.90;1.00
7014;DHT22;3547;50.774;12.918;2023-03-24T16:51:33;10.80;1.00
7014;DHT22;3547;50.774;12.918;2023-03-24T16:54:00;10.70;1.00
7014;DHT22;3547;50.774;12.918;2023-03-24T16:56:26;10.70;1.00
7014;DHT22;3547;50.774;12.918;2023-03-24T16:58:53;10.60;1.00
7014;DHT22;3547;50.774;12.918;2023-03-24T17:04:01;10.50;1.00
7014;DHT22;3547;50.774;12.918;2023-03-24T17:06:31;10.40;1.00
7014;DHT22;3547;50.774;12.918;2023-03-24T17:11:54;10.40;1.00
7014;DHT22;3547;50.774;12.918;2023-03-24T17:14:20;10.20;1.00
7014;DHT22;3547;50.774;12.918;2023-03-24T17:16:47;10.20;1.00
7014;DHT22;3547;50.774;12.918;2023-03-24T17:19:17;10.20;1.00
7014;DHT22;3547;50.774;12.918;2023-03-24T17:21:51;10.10;1.00
7014;DHT22;3547;50.774;12.918;2023-03-24T17:24:19;10.10;1.00
7014;DHT22;3547;50.774;12.918;2023-03-24T17:29:21;10.00;1.00
7014;DHT22;3547;50.774;12.918;2023-03-24T17:31:48;10.00;1.00
7014;DHT22;3547;50.774;12.918;2023-03-24T17:34:14;9.90;1.00
7014;DHT22;3547;50.774;12.918;2023-03-24T17:36:42;9.80;1.00
7014;DHT22;3547;50.774;12.918;2023-03-24T17:39:14;9.80;1.00
7014;DHT22;3547;50.774;12.918;2023-03-24T17:41:40;9.80;1.00
7014;DHT22;3547;50.774;12.918;2023-03-24T17:44:07;9.70;1.00
7014;DHT22;3547;50.774;12.918;2023-03-24T17:46:33;9.70;1.00
7014;DHT22;3547;50.774;12.918;2023-03-24T17:49:00;9.60;1.00
7014;DHT22;3547;50.774;12.918;2023-03-24T18:01:50;9.50;1.00
7014;DHT22;3547;50.774;12.918;2023-03-24T18:04:16;9.50;1.00
7014;DHT22;3547;50.774;12.918;2023-03-24T18:06:43;9.40;1.00
7014;DHT22;3547;50.774;12.918;2023-03-24T18:09:09;9.50;99.90
7014;DHT22;3547;50.774;12.918;2023-03-24T18:11:35;9.50;99.90
7014;DHT22;3547;50.774;12.918;2023-03-24T18:14:02;9.40;1.00
7014;DHT22;3547;50.774;12.918;2023-03-24T18:16:31;9.40;99.90
7014;DHT22;3547;50.774;12.918;2023-03-24T18:19:00;9.40;1.00
7014;DHT22;3547;50.774;12.918;2023-03-24T18:21:27;9.40;1.00
7014;DHT22;3547;50.774;12.918;2023-03-24T18:23:53;9.30;99.90
7014;DHT22;3547;50.774;12.918;2023-03-24T18:26:19;9.30;99.90
7014;DHT22;3547;50.774;12.918;2023-03-24T18:28:47;9.30;1.00
7014;DHT22;3547;50.774;12.918;2023-03-24T18:31:17;9.30;99.90
7014;DHT22;3547;50.774;12.918;2023-03-24T18:33:46;9.30;1.00
7014;DHT22;3547;50.774;12.918;2023-03-24T18:36:14;9.30;99.90
7014;DHT22;3547;50.774;12.918;2023-03-24T18:39:05;9.20;99.90
7014;DHT22;3547;50.774;12.918;2023-03-24T18:41:32;9.20;1.00
7014;DHT22;3547;50.774;12.918;2023-03-24T18:44:03;9.20;1.00
7014;DHT22;3547;50.774;12.918;2023-03-24T18:46:30;9.20;1.00
7014;DHT22;3547;50.774;12.918;2023-03-24T18:48:59;9.20;1.00
7014;DHT22;3547;50.774;12.918;2023-03-24T18:51:46;9.10;1.00
7014;DHT22;3547;50.774;12.918;2023-03-24T18:54:58;9.10;1.00
7014;DHT22;3547;50.774;12.918;2023-03-24T18:57:26;9.00;1.00
7014;DHT22;3547;50.774;12.918;2023-03-24T18:59:52;9.00;1.00
7014;DHT22;3547;50.774;12.918;2023-03-24T19:02:18;9.00;1.00
7014;DHT22;3547;50.774;12.918;2023-03-24T19:04:44;9.00;1.00
7014;DHT22;3547;50.774;12.918;2023-03-24T19:07:11;8.90;1.00
7014;DHT22;3547;50.774;12.918;2023-03-24T19:09:42;8.90;1.00
7014;DHT22;3547;50.774;12.918;2023-03-24T19:12:08;8.90;1.00
7014;DHT22;3547;50.774;12.918;2023-03-24T19:14:35;8.90;1.00
7014;DHT22;3547;50.774;12.918;2023-03-24T19:17:01;8.80;1.00
7014;DHT22;3547;50.774;12.918;2023-03-24T19:19:31;8.80;1.00
7014;DHT22;3547;50.774;12.918;2023-03-24T19:21:57;8.80;1.00
7014;DHT22;3547;50.774;12.918;2023-03-24T19:24:24;8.80;1.00
7014;DHT22;3547;50.774;12.918;2023-03-24T19:26:53;8.70;1.00
7014;DHT22;3547;50.774;12.918;2023-03-24T19:29:21;8.70;1.00
7014;DHT22;3547;50.774;12.918;2023-03-24T19:31:47;8.60;1.00
7014;DHT22;3547;50.774;12.918;2023-03-24T19:34:14;8.60;1.00
7014;DHT22;3547;50.774;12.918;2023-03-24T19:36:40;8.60;1.00
7014;DHT22;3547;50.774;12.918;2023-03-24T19:39:10;8.70;1.00
7014;DHT22;3547;50.774;12.918;2023-03-24T19:41:40;8.60;1.00
7014;DHT22;3547;50.774;12.918;2023-03-24T19:44:06;8.60;1.00
7014;DHT22;3547;50.774;12.918;2023-03-24T19:46:32;8.70;1.00
7014;DHT22;3547;50.774;12.918;2023-03-24T19:48:59;8.70;1.00
7014;DHT22;3547;50.774;12.918;2023-03-24T19:51:25;8.70;1.00
7014;DHT22;3547;50.774;12.918;2023-03-24T19:53:54;8.70;1.00
7014;DHT22;3547;50.774;12.918;2023-03-24T19:56:20;8.70;1.00
7014;DHT22;3547;50.774;12.918;2023-03-24T19:58:46;8.80;1.00
7014;DHT22;3547;50.774;12.918;2023-03-24T20:01:12;8.80;1.00
7014;DHT22;3547;50.774;12.918;2023-03-24T20:03:38;8.70;1.00
7014;DHT22;3547;50.774;12.918;2023-03-24T20:06:05;8.70;1.00
7014;DHT22;3547;50.774;12.918;2023-03-24T20:08:36;8.70;1.00
7014;DHT22;3547;50.774;12.918;2023-03-24T20:11:08;8.60;1.00
7014;DHT22;3547;50.774;12.918;2023-03-24T20:13:34;8.60;1.00
7014;DHT22;3547;50.774;12.918;2023-03-24T20:16:01;8.60;1.00
7014;DHT22;3547;50.774;12.918;2023-03-24T20:18:28;8.60;1.00
7014;DHT22;3547;50.774;12.918;2023-03-24T20:20:55;8.50;1.00
7014;DHT22;3547;50.774;12.918;2023-03-24T20:23:22;8.50;1.00
7014;DHT22;3547;50.774;12.918;2023-03-24T20:25:48;8.50;1.00
7014;DHT22;3547;50.774;12.918;2023-03-24T20:28:14;8.40;1.00
7014;DHT22;3547;50.774;12.918;2023-03-24T20:30:40;8.40;1.00
7014;DHT22;3547;50.774;12.918;2023-03-24T20:33:09;8.40;1.00
7014;DHT22;3547;50.774;12.918;2023-03-24T20:35:36;8.30;1.00
7014;DHT22;3547;50.774;12.918;2023-03-24T20:38:02;8.30;1.00
7014;DHT22;3547;50.774;12.918;2023-03-24T20:40:31;8.30;1.00
7014;DHT22;3547;50.774;12.918;2023-03-24T20:42:59;8.20;1.00
7014;DHT22;3547;50.774;12.918;2023-03-24T20:45:26;8.20;1.00
7014;DHT22;3547;50.774;12.918;2023-03-24T20:47:52;8.20;1.00
7014;DHT22;3547;50.774;12.918;2023-03-24T20:50:18;8.30;1.00
7014;DHT22;3547;50.774;12.918;2023-03-24T20:52:44;8.30;1.00
7014;DHT22;3547;50.774;12.918;2023-03-24T20:55:11;8.30;1.00
7014;DHT22;3547;50.774;12.918;2023-03-24T20:57:37;8.30;1.00
7014;DHT22;3547;50.774;12.918;2023-03-24T21:00:04;8.30;1.00
7014;DHT22;3547;50.774;12.918;2023-03-24T21:02:40;8.30;1.00
7014;DHT22;3547;50.774;12.918;2023-03-24T21:05:07;8.30;1.00
7014;DHT22;3547;50.774;12.918;2023-03-24T21:07:33;8.30;1.00
7014;DHT22;3547;50.774;12.918;2023-03-24T21:10:03;8.50;1.00
7014;DHT22;3547;50.774;12.918;2023-03-24T21:12:30;8.50;1.00
7014;DHT22;3547;50.774;12.918;2023-03-24T21:14:56;8.50;1.00
7014;DHT22;3547;50.774;12.918;2023-03-24T21:17:22;8.50;1.00
7014;DHT22;3547;50.774;12.918;2023-03-24T21:19:49;8.60;1.00
7014;DHT22;3547;50.774;12.918;2023-03-24T21:22:15;8.60;1.00
7014;DHT22;3547;50.774;12.918;2023-03-24T21:24:41;8.60;1.00
7014;DHT22;3547;50.774;12.918;2023-03-24T21:27:07;8.60;1.00
7014;DHT22;3547;50.774;12.918;2023-03-24T21:29:34;8.50;1.00
7014;DHT22;3547;50.774;12.918;2023-03-24T21:32:00;8.50;1.00
7014;DHT22;3547;50.774;12.918;2023-03-24T21:34:26;8.40;1.00
7014;DHT22;3547;50.774;12.918;2023-03-24T21:36:52;8.40;1.00
7014;DHT22;3547;50.774;12.918;2023-03-24T21:39:20;8.40;1.00
7014;DHT22;3547;50.774;12.918;2023-03-24T21:41:47;8.30;1.00
7014;DHT22;3547;50.774;12.918;2023-03-24T21:44:17;8.30;1.00
7014;DHT22;3547;50.774;12.918;2023-03-24T21:46:44;8.30;1.00
7014;DHT22;3547;50.774;12.918;2023-03-24T21:49:12;8.20;1.00
7014;DHT22;3547;50.774;12.918;2023-03-24T21:51:38;8.20;1.00
7014;DHT22;3547;50.774;12.918;2023-03-24T21:54:07;8.20;1.00
7014;DHT22;3547;50.774;12.918;2023-03-24T21:56:35;8.20;1.00
7014;DHT22;3547;50.774;12.918;2023-03-24T21:59:02;8.10;1.00
7014;DHT22;3547;50.774;12.918;2023-03-24T22:01:29;8.20;1.00
7014;DHT22;3547;50.774;12.918;2023-03-24T22:03:56;8.30;1.00
7014;DHT22;3547;50.774;12.918;2023-03-24T22:06:23;8.30;1.00
7014;DHT22;3547;50.774;12.918;2023-03-24T22:08:50;8.40;1.00
7014;DHT22;3547;50.774;12.918;2023-03-24T22:11:17;8.40;1.00
7014;DHT22;3547;50.774;12.918;2023-03-24T22:13:44;8.40;1.00
7014;DHT22;3547;50.774;12.918;2023-03-24T22:16:20;8.50;1.00
7014;DHT22;3547;50.774;12.918;2023-03-24T22:18:46;8.40;1.00
7014;DHT22;3547;50.774;12.918;2023-03-24T22:21:12;8.50;1.00
7014;DHT22;3547;50.774;12.918;2023-03-24T22:23:39;8.40;1.00